Estación Meteorológica Peña el Pijo (Robertgarden) [ 01/30/23 15:41:28 CET ]

Fecha Hora Presion(HPa) Temp (°C) Humedad % Rocio (°C) Viento ( m/s) Direccion Lluvia 1Hora(mm) Lluvia 24H(mm) LLuvia Total(mm)
2012-Apr-29 01:01:16 1003.500 7.2 66 1.2         158.50
2012-Apr-29 02:01:13 1003.500 4.9 73 0.4         158.50
2012-Apr-29 03:05:13 1003.800 5.3 70 0.3         158.50
2012-Apr-29 04:01:11 1003.600 4.1 72 -0.5         158.50
2012-Apr-29 05:01:13 1003.500 5.1 68 -0.3         158.50
2012-Apr-29 06:01:14 1003.500 5.0 67 -0.6         158.50
2012-Apr-29 07:01:14 1003.200 4.5 68 -0.9         158.50
2012-Apr-29 08:01:17 1003.400 4.6 70 -0.4         158.50
2012-Apr-29 09:01:16 1003.600 8.5 58 0.7         158.50
2012-Apr-29 10:01:14 1004.000 10.8 51 1.1         158.50
2012-Apr-29 11:01:12 1004.100 10.1 52 0.7 0.8 NNW     158.50
2012-Apr-29 12:01:14 1004.700 12.1 54 3.0         158.50
2012-Apr-29 13:01:14 1004.000 13.1 53 3.7 0.6 ESE     158.50
2012-Apr-29 14:01:23 1003.400 16.4 40 2.8         158.50
2012-Apr-29 15:01:19 1003.600 11.9 49 1.5 1.3 SSW     158.50
2012-Apr-29 16:01:16 1003.200 12.4 50 2.3         158.50
2012-Apr-29 17:01:14 1003.100 9.8 60 2.4         158.50
2012-Apr-29 18:01:11 1003.300 8.1 70 3.0 1.2 E     158.50
2012-Apr-29 19:01:16 1003.400 6.6 75 2.5         158.50
2012-Apr-29 20:01:14 1003.100 7.5 74 3.2         158.50
2012-Apr-29 21:01:14 1003.800 5.1 79 1.7         158.50
2012-Apr-29 22:01:14 1004.100 3.7 84 1.2         158.50
2012-Apr-29 23:01:12 1004.600 3.6 87 1.6         158.50

Temperatura Máxima:16°    Temperatura Mínima:
Presión Máxima:1004.700 Hpa    Presión Mínima:1003.100 Hpa


Volver